SCCI 201700Z 26009KT 240V300 9999 SCT043 BKN100 13/M00 Q0999 NOSIG